MCX4580 KMIA-KCHS
Flight info
| Callsign | MCX4580 |
|---|---|
| Flight time | N/A |
| Altitude | 33000 |
| Route | ALTNN2 DUCEN Q87 VIYAP SAV BAGGY3 |
| Aircraft | CRJ7/M-SDFGIRWY/S |
Departure
| Time | 2026-04-30 22:41 |
|---|---|
| Airport | Miami International Airport (KMIA) |
Arrival
| Time | N/A |
|---|---|
| Airport | Charleston International Airport (KCHS) |
| Time | Latitude | Longitude | Altitude | Speed | Heading |
|---|---|---|---|---|---|
| 2026-04-30 22:05 | 25.79731 | -80.28707 | 23 ft | 0 kts | 140° |
| 2026-04-30 22:34 | 25.79734 | -80.28710 | 13 ft | 3 kts | 143° |
| 2026-04-30 22:35 | 25.79763 | -80.28697 | 13 ft | 1 kts | 264° |
| 2026-04-30 22:36 | 25.79763 | -80.28692 | 13 ft | 0 kts | 264° |
| 2026-04-30 22:37 | 25.79760 | -80.28764 | 13 ft | 9 kts | 271° |
| 2026-04-30 22:37 | 25.79802 | -80.28820 | 13 ft | 12 kts | 351° |
| 2026-04-30 22:37 | 25.80000 | -80.28847 | 14 ft | 15 kts | 316° |
| 2026-04-30 22:38 | 25.80004 | -80.29088 | 14 ft | 17 kts | 268° |
| 2026-04-30 22:38 | 25.79991 | -80.29352 | 13 ft | 18 kts | 265° |
| 2026-04-30 22:39 | 25.79982 | -80.29498 | 12 ft | 20 kts | 268° |
| 2026-04-30 22:39 | 25.79970 | -80.29858 | 12 ft | 17 kts | 266° |
| 2026-04-30 22:40 | 25.80077 | -80.30032 | 11 ft | 16 kts | 87° |
| 2026-04-30 22:41 | 25.80172 | -80.27918 | 94 ft | 143 kts | 89° |
| 2026-04-30 22:41 | 25.80442 | -80.25556 | 779 ft | 160 kts | 86° |
| 2026-04-30 22:42 | 25.80507 | -80.19543 | 2426 ft | 236 kts | 91° |
| 2026-04-30 22:43 | 25.81860 | -80.16161 | 3601 ft | 262 kts | 28° |
| 2026-04-30 22:43 | 25.85362 | -80.15602 | 5326 ft | 258 kts | 357° |
| 2026-04-30 22:44 | 25.88976 | -80.15664 | 6883 ft | 263 kts | 355° |
| 2026-04-30 22:45 | 25.96064 | -80.18013 | 9896 ft | 271 kts | 340° |
| 2026-04-30 22:45 | 25.99898 | -80.19274 | 10535 ft | 308 kts | 351° |
| 2026-04-30 22:46 | 26.04375 | -80.19687 | 11321 ft | 337 kts | 355° |
| 2026-04-30 22:47 | 26.13869 | -80.20518 | 14088 ft | 348 kts | 353° |
| 2026-04-30 22:47 | 26.18744 | -80.21015 | 15322 ft | 354 kts | 353° |
| 2026-04-30 22:48 | 26.23689 | -80.21523 | 16557 ft | 360 kts | 353° |
| 2026-04-30 22:49 | 26.31179 | -80.22234 | 18251 ft | 369 kts | 353° |
| 2026-04-30 22:49 | 26.38888 | -80.22935 | 19704 ft | 375 kts | 353° |
| 2026-04-30 22:50 | 26.49421 | -80.23938 | 21524 ft | 384 kts | 352° |
| 2026-04-30 22:51 | 26.54777 | -80.24483 | 22374 ft | 388 kts | 352° |
| 2026-04-30 22:51 | 26.60129 | -80.25242 | 23165 ft | 391 kts | 348° |
| 2026-04-30 22:52 | 26.62829 | -80.25745 | 23554 ft | 393 kts | 348° |
| 2026-04-30 22:52 | 26.68259 | -80.26724 | 24209 ft | 397 kts | 349° |
| 2026-04-30 22:53 | 26.73631 | -80.28150 | 24859 ft | 397 kts | 338° |
| 2026-04-30 22:53 | 26.78763 | -80.30410 | 25472 ft | 399 kts | 336° |
| 2026-04-30 22:53 | 26.81355 | -80.31570 | 25775 ft | 401 kts | 337° |
| 2026-04-30 22:54 | 26.86592 | -80.33787 | 26360 ft | 404 kts | 338° |
| 2026-04-30 22:55 | 26.94637 | -80.37147 | 26778 ft | 418 kts | 338° |
| 2026-04-30 22:55 | 27.00097 | -80.39347 | 27472 ft | 416 kts | 338° |
| 2026-04-30 22:56 | 27.05486 | -80.41521 | 28185 ft | 412 kts | 338° |
| 2026-04-30 22:56 | 27.13537 | -80.44840 | 29221 ft | 408 kts | 336° |
| 2026-04-30 22:57 | 27.18803 | -80.47163 | 29899 ft | 405 kts | 336° |
| 2026-04-30 22:57 | 27.24046 | -80.49480 | 30380 ft | 405 kts | 336° |
| 2026-04-30 22:58 | 27.29287 | -80.51798 | 30808 ft | 404 kts | 336° |
| 2026-04-30 22:59 | 27.37108 | -80.55258 | 31408 ft | 404 kts | 336° |
| 2026-04-30 22:59 | 27.45068 | -80.58491 | 31955 ft | 405 kts | 339° |